sensor_id;sensor_type;location;lat;lon;timestamp;P1;durP1;ratioP1;P2;durP2;ratioP2
47155;SDS011;32908;52.344;16.858;2022-08-18T00:02:11;11.43;;;9.33;;
47155;SDS011;32908;52.344;16.858;2022-08-18T00:04:43;10.77;;;8.87;;
47155;SDS011;32908;52.344;16.858;2022-08-18T00:07:12;13.47;;;10.13;;
47155;SDS011;32908;52.344;16.858;2022-08-18T00:09:41;14.83;;;10.00;;
47155;SDS011;32908;52.344;16.858;2022-08-18T00:12:11;11.60;;;9.60;;
47155;SDS011;32908;52.344;16.858;2022-08-18T00:14:41;12.53;;;9.73;;
47155;SDS011;32908;52.344;16.858;2022-08-18T00:17:10;12.87;;;9.87;;
47155;SDS011;32908;52.344;16.858;2022-08-18T00:19:37;17.13;;;10.37;;
47155;SDS011;32908;52.344;16.858;2022-08-18T00:22:05;12.07;;;9.93;;
47155;SDS011;32908;52.344;16.858;2022-08-18T00:24:33;13.07;;;10.50;;
47155;SDS011;32908;52.344;16.858;2022-08-18T00:27:01;14.37;;;10.43;;
47155;SDS011;32908;52.344;16.858;2022-08-18T00:29:29;11.87;;;10.00;;
47155;SDS011;32908;52.344;16.858;2022-08-18T00:31:57;15.67;;;10.53;;
47155;SDS011;32908;52.344;16.858;2022-08-18T00:34:25;10.77;;;9.77;;
47155;SDS011;32908;52.344;16.858;2022-08-18T00:36:52;10.90;;;9.77;;
47155;SDS011;32908;52.344;16.858;2022-08-18T00:39:20;13.87;;;11.00;;
47155;SDS011;32908;52.344;16.858;2022-08-18T00:41:48;11.63;;;10.10;;
47155;SDS011;32908;52.344;16.858;2022-08-18T00:44:16;10.83;;;9.73;;
47155;SDS011;32908;52.344;16.858;2022-08-18T00:46:43;11.97;;;10.00;;
47155;SDS011;32908;52.344;16.858;2022-08-18T00:49:11;12.37;;;10.90;;
47155;SDS011;32908;52.344;16.858;2022-08-18T00:51:42;13.63;;;10.53;;
47155;SDS011;32908;52.344;16.858;2022-08-18T00:54:13;12.53;;;10.80;;
47155;SDS011;32908;52.344;16.858;2022-08-18T00:56:44;12.97;;;10.27;;
47155;SDS011;32908;52.344;16.858;2022-08-18T00:59:15;12.57;;;10.77;;
47155;SDS011;32908;52.344;16.858;2022-08-18T01:01:46;11.43;;;10.10;;
47155;SDS011;32908;52.344;16.858;2022-08-18T01:04:16;14.23;;;11.80;;
47155;SDS011;32908;52.344;16.858;2022-08-18T01:06:47;13.50;;;10.90;;
47155;SDS011;32908;52.344;16.858;2022-08-18T01:09:18;19.33;;;11.13;;
47155;SDS011;32908;52.344;16.858;2022-08-18T01:11:45;11.17;;;9.83;;
47155;SDS011;32908;52.344;16.858;2022-08-18T01:14:13;11.30;;;10.20;;
47155;SDS011;32908;52.344;16.858;2022-08-18T01:16:43;13.90;;;10.67;;
47155;SDS011;32908;52.344;16.858;2022-08-18T01:19:29;16.73;;;10.98;;
47155;SDS011;32908;52.344;16.858;2022-08-18T01:22:18;12.93;;;11.13;;
47155;SDS011;32908;52.344;16.858;2022-08-18T01:24:49;17.17;;;12.27;;
47155;SDS011;32908;52.344;16.858;2022-08-18T01:27:36;13.57;;;12.03;;
47155;SDS011;32908;52.344;16.858;2022-08-18T01:30:08;14.30;;;11.93;;
47155;SDS011;32908;52.344;16.858;2022-08-18T01:32:39;15.37;;;12.90;;
47155;SDS011;32908;52.344;16.858;2022-08-18T01:35:08;16.57;;;12.43;;
47155;SDS011;32908;52.344;16.858;2022-08-18T01:37:37;15.33;;;12.13;;
47155;SDS011;32908;52.344;16.858;2022-08-18T01:40:09;16.30;;;12.57;;
47155;SDS011;32908;52.344;16.858;2022-08-18T01:42:38;19.23;;;12.30;;
47155;SDS011;32908;52.344;16.858;2022-08-18T01:45:12;15.00;;;12.80;;
47155;SDS011;32908;52.344;16.858;2022-08-18T01:47:41;18.13;;;13.60;;
47155;SDS011;32908;52.344;16.858;2022-08-18T01:50:09;16.70;;;14.60;;
47155;SDS011;32908;52.344;16.858;2022-08-18T01:52:38;15.50;;;13.33;;
47155;SDS011;32908;52.344;16.858;2022-08-18T01:55:06;15.97;;;13.70;;
47155;SDS011;32908;52.344;16.858;2022-08-18T01:57:35;16.90;;;13.27;;
47155;SDS011;32908;52.344;16.858;2022-08-18T02:00:09;18.90;;;14.70;;
47155;SDS011;32908;52.344;16.858;2022-08-18T02:02:39;17.77;;;14.63;;
47155;SDS011;32908;52.344;16.858;2022-08-18T02:05:08;21.30;;;14.70;;
47155;SDS011;32908;52.344;16.858;2022-08-18T02:07:38;20.77;;;14.70;;
47155;SDS011;32908;52.344;16.858;2022-08-18T02:10:07;18.07;;;14.70;;
47155;SDS011;32908;52.344;16.858;2022-08-18T02:12:36;18.07;;;15.37;;
47155;SDS011;32908;52.344;16.858;2022-08-18T02:15:04;22.43;;;17.40;;
47155;SDS011;32908;52.344;16.858;2022-08-18T02:17:35;63.27;;;39.73;;
47155;SDS011;32908;52.344;16.858;2022-08-18T02:20:04;51.40;;;32.07;;
47155;SDS011;32908;52.344;16.858;2022-08-18T02:22:34;38.83;;;25.47;;
47155;SDS011;32908;52.344;16.858;2022-08-18T02:25:01;39.23;;;23.80;;
47155;SDS011;32908;52.344;16.858;2022-08-18T02:27:30;26.07;;;18.80;;
47155;SDS011;32908;52.344;16.858;2022-08-18T02:29:58;26.33;;;19.30;;
47155;SDS011;32908;52.344;16.858;2022-08-18T02:32:27;20.70;;;15.63;;
47155;SDS011;32908;52.344;16.858;2022-08-18T02:34:55;17.07;;;15.27;;
47155;SDS011;32908;52.344;16.858;2022-08-18T02:37:23;23.90;;;16.07;;
47155;SDS011;32908;52.344;16.858;2022-08-18T02:39:51;19.47;;;15.73;;
47155;SDS011;32908;52.344;16.858;2022-08-18T02:42:19;17.27;;;15.47;;
47155;SDS011;32908;52.344;16.858;2022-08-18T02:44:47;19.90;;;15.93;;
47155;SDS011;32908;52.344;16.858;2022-08-18T02:47:16;20.30;;;16.30;;
47155;SDS011;32908;52.344;16.858;2022-08-18T02:49:46;17.50;;;15.70;;
47155;SDS011;32908;52.344;16.858;2022-08-18T02:52:14;18.20;;;15.30;;
47155;SDS011;32908;52.344;16.858;2022-08-18T02:54:42;17.23;;;15.33;;
47155;SDS011;32908;52.344;16.858;2022-08-18T02:57:10;19.87;;;16.10;;
47155;SDS011;32908;52.344;16.858;2022-08-18T02:59:39;22.23;;;16.70;;
47155;SDS011;32908;52.344;16.858;2022-08-18T03:02:07;19.27;;;16.40;;
47155;SDS011;32908;52.344;16.858;2022-08-18T03:04:35;21.57;;;16.73;;
47155;SDS011;32908;52.344;16.858;2022-08-18T03:07:06;20.63;;;16.27;;
47155;SDS011;32908;52.344;16.858;2022-08-18T03:09:34;19.53;;;16.60;;
47155;SDS011;32908;52.344;16.858;2022-08-18T03:12:03;24.40;;;17.20;;
47155;SDS011;32908;52.344;16.858;2022-08-18T03:14:32;19.57;;;17.30;;
47155;SDS011;32908;52.344;16.858;2022-08-18T03:17:03;23.30;;;18.00;;
47155;SDS011;32908;52.344;16.858;2022-08-18T03:19:31;18.93;;;16.87;;
47155;SDS011;32908;52.344;16.858;2022-08-18T03:21:59;23.47;;;16.87;;
47155;SDS011;32908;52.344;16.858;2022-08-18T03:24:27;19.93;;;16.03;;
47155;SDS011;32908;52.344;16.858;2022-08-18T03:26:56;18.37;;;16.37;;
47155;SDS011;32908;52.344;16.858;2022-08-18T03:29:24;17.93;;;15.77;;
47155;SDS011;32908;52.344;16.858;2022-08-18T03:31:52;22.30;;;17.70;;
47155;SDS011;32908;52.344;16.858;2022-08-18T03:34:20;22.67;;;16.67;;
47155;SDS011;32908;52.344;16.858;2022-08-18T03:36:48;21.57;;;16.87;;
47155;SDS011;32908;52.344;16.858;2022-08-18T03:39:17;20.57;;;16.83;;
47155;SDS011;32908;52.344;16.858;2022-08-18T03:41:49;21.93;;;16.67;;
47155;SDS011;32908;52.344;16.858;2022-08-18T03:44:20;19.93;;;15.87;;
47155;SDS011;32908;52.344;16.858;2022-08-18T03:46:48;22.87;;;16.83;;
47155;SDS011;32908;52.344;16.858;2022-08-18T03:49:17;18.50;;;16.37;;
47155;SDS011;32908;52.344;16.858;2022-08-18T03:51:46;20.43;;;16.57;;
47155;SDS011;32908;52.344;16.858;2022-08-18T03:54:14;23.20;;;17.70;;
47155;SDS011;32908;52.344;16.858;2022-08-18T03:56:44;21.90;;;17.85;;
47155;SDS011;32908;52.344;16.858;2022-08-18T03:59:14;21.47;;;16.30;;
47155;SDS011;32908;52.344;16.858;2022-08-18T04:01:43;24.40;;;17.00;;
47155;SDS011;32908;52.344;16.858;2022-08-18T04:04:13;25.13;;;16.63;;
47155;SDS011;32908;52.344;16.858;2022-08-18T04:06:43;19.53;;;17.10;;
47155;SDS011;32908;52.344;16.858;2022-08-18T04:09:14;21.03;;;18.13;;
47155;SDS011;32908;52.344;16.858;2022-08-18T04:11:42;25.73;;;18.00;;
47155;SDS011;32908;52.344;16.858;2022-08-18T04:14:11;20.23;;;18.07;;
47155;SDS011;32908;52.344;16.858;2022-08-18T04:16:40;24.10;;;17.70;;
47155;SDS011;32908;52.344;16.858;2022-08-18T04:19:08;20.83;;;17.73;;
47155;SDS011;32908;52.344;16.858;2022-08-18T04:21:39;22.80;;;17.60;;
47155;SDS011;32908;52.344;16.858;2022-08-18T04:24:08;20.40;;;17.73;;
47155;SDS011;32908;52.344;16.858;2022-08-18T04:26:38;23.17;;;17.33;;
47155;SDS011;32908;52.344;16.858;2022-08-18T04:29:07;26.03;;;18.30;;
47155;SDS011;32908;52.344;16.858;2022-08-18T04:31:35;21.80;;;17.00;;
47155;SDS011;32908;52.344;16.858;2022-08-18T04:34:04;21.80;;;17.73;;
47155;SDS011;32908;52.344;16.858;2022-08-18T04:36:32;21.10;;;18.93;;
47155;SDS011;32908;52.344;16.858;2022-08-18T04:39:01;22.37;;;18.70;;
47155;SDS011;32908;52.344;16.858;2022-08-18T04:41:30;23.63;;;18.63;;
47155;SDS011;32908;52.344;16.858;2022-08-18T04:43:59;21.73;;;18.07;;
47155;SDS011;32908;52.344;16.858;2022-08-18T04:46:27;26.03;;;18.53;;
47155;SDS011;32908;52.344;16.858;2022-08-18T04:48:57;28.47;;;20.03;;
47155;SDS011;32908;52.344;16.858;2022-08-18T04:51:25;24.90;;;18.20;;
47155;SDS011;32908;52.344;16.858;2022-08-18T04:53:54;25.03;;;19.03;;
47155;SDS011;32908;52.344;16.858;2022-08-18T04:56:23;26.03;;;18.33;;
47155;SDS011;32908;52.344;16.858;2022-08-18T04:58:52;23.07;;;19.67;;
47155;SDS011;32908;52.344;16.858;2022-08-18T05:01:23;29.33;;;18.87;;
47155;SDS011;32908;52.344;16.858;2022-08-18T05:03:52;25.33;;;19.53;;
47155;SDS011;32908;52.344;16.858;2022-08-18T05:06:21;29.10;;;19.20;;
47155;SDS011;32908;52.344;16.858;2022-08-18T05:08:50;24.43;;;18.40;;
47155;SDS011;32908;52.344;16.858;2022-08-18T05:11:19;30.90;;;19.17;;
47155;SDS011;32908;52.344;16.858;2022-08-18T05:13:48;26.23;;;20.67;;
47155;SDS011;32908;52.344;16.858;2022-08-18T05:16:17;22.20;;;19.90;;
47155;SDS011;32908;52.344;16.858;2022-08-18T05:18:45;23.70;;;20.20;;
47155;SDS011;32908;52.344;16.858;2022-08-18T05:21:14;22.90;;;19.97;;
47155;SDS011;32908;52.344;16.858;2022-08-18T05:23:42;30.07;;;19.33;;
47155;SDS011;32908;52.344;16.858;2022-08-18T05:26:11;25.47;;;19.30;;
47155;SDS011;32908;52.344;16.858;2022-08-18T05:28:39;22.90;;;19.40;;
47155;SDS011;32908;52.344;16.858;2022-08-18T05:31:08;24.53;;;20.20;;
47155;SDS011;32908;52.344;16.858;2022-08-18T05:33:37;24.07;;;19.73;;
47155;SDS011;32908;52.344;16.858;2022-08-18T05:36:09;24.83;;;20.43;;
47155;SDS011;32908;52.344;16.858;2022-08-18T05:38:47;23.33;;;20.87;;
47155;SDS011;32908;52.344;16.858;2022-08-18T05:41:20;29.17;;;20.47;;
47155;SDS011;32908;52.344;16.858;2022-08-18T05:43:50;23.40;;;19.97;;
47155;SDS011;32908;52.344;16.858;2022-08-18T05:46:18;24.97;;;19.70;;
47155;SDS011;32908;52.344;16.858;2022-08-18T05:48:48;26.63;;;20.13;;
47155;SDS011;32908;52.344;16.858;2022-08-18T05:51:18;22.03;;;19.73;;
47155;SDS011;32908;52.344;16.858;2022-08-18T05:53:51;24.80;;;19.97;;
47155;SDS011;32908;52.344;16.858;2022-08-18T05:56:37;25.32;;;20.50;;
47155;SDS011;32908;52.344;16.858;2022-08-18T05:59:15;26.33;;;19.27;;
47155;SDS011;32908;52.344;16.858;2022-08-18T06:01:46;27.70;;;20.27;;
47155;SDS011;32908;52.344;16.858;2022-08-18T06:04:21;22.93;;;18.80;;
47155;SDS011;32908;52.344;16.858;2022-08-18T06:06:51;22.80;;;18.77;;
47155;SDS011;32908;52.344;16.858;2022-08-18T06:09:23;27.00;;;19.67;;
47155;SDS011;32908;52.344;16.858;2022-08-18T06:11:54;24.40;;;18.53;;
47155;SDS011;32908;52.344;16.858;2022-08-18T06:14:24;22.93;;;19.30;;
47155;SDS011;32908;52.344;16.858;2022-08-18T06:16:53;26.47;;;18.30;;
47155;SDS011;32908;52.344;16.858;2022-08-18T06:19:31;27.27;;;18.37;;
47155;SDS011;32908;52.344;16.858;2022-08-18T06:22:06;27.67;;;19.00;;
47155;SDS011;32908;52.344;16.858;2022-08-18T06:24:43;25.07;;;17.73;;
47155;SDS011;32908;52.344;16.858;2022-08-18T06:27:17;26.13;;;17.23;;
47155;SDS011;32908;52.344;16.858;2022-08-18T06:29:55;31.47;;;19.00;;
47155;SDS011;32908;52.344;16.858;2022-08-18T06:32:33;22.90;;;16.17;;
47155;SDS011;32908;52.344;16.858;2022-08-18T06:35:13;22.03;;;16.60;;
47155;SDS011;32908;52.344;16.858;2022-08-18T06:40:32;26.20;;;16.53;;
47155;SDS011;32908;52.344;16.858;2022-08-18T06:43:00;28.07;;;17.13;;
47155;SDS011;32908;52.344;16.858;2022-08-18T06:45:30;18.83;;;16.47;;
47155;SDS011;32908;52.344;16.858;2022-08-18T06:48:02;23.90;;;15.77;;
47155;SDS011;32908;52.344;16.858;2022-08-18T06:50:39;24.87;;;15.43;;
47155;SDS011;32908;52.344;16.858;2022-08-18T06:53:13;17.13;;;15.37;;
47155;SDS011;32908;52.344;16.858;2022-08-18T06:55:41;25.30;;;14.97;;
47155;SDS011;32908;52.344;16.858;2022-08-18T06:58:21;18.37;;;15.10;;
47155;SDS011;32908;52.344;16.858;2022-08-18T07:00:54;25.57;;;14.70;;
47155;SDS011;32908;52.344;16.858;2022-08-18T07:03:39;20.97;;;14.73;;
47155;SDS011;32908;52.344;16.858;2022-08-18T07:06:08;23.50;;;14.70;;
47155;SDS011;32908;52.344;16.858;2022-08-18T07:08:38;20.33;;;14.97;;
47155;SDS011;32908;52.344;16.858;2022-08-18T07:11:11;22.53;;;15.13;;
47155;SDS011;32908;52.344;16.858;2022-08-18T07:13:42;19.90;;;14.43;;
47155;SDS011;32908;52.344;16.858;2022-08-18T07:16:15;17.90;;;14.13;;
47155;SDS011;32908;52.344;16.858;2022-08-18T07:18:46;20.63;;;13.27;;
47155;SDS011;32908;52.344;16.858;2022-08-18T07:21:23;16.40;;;13.90;;
47155;SDS011;32908;52.344;16.858;2022-08-18T07:24:00;16.33;;;13.50;;
47155;SDS011;32908;52.344;16.858;2022-08-18T07:26:31;19.07;;;14.27;;
47155;SDS011;32908;52.344;16.858;2022-08-18T07:29:26;18.00;;;14.50;;
47155;SDS011;32908;52.344;16.858;2022-08-18T07:31:55;20.00;;;13.63;;
47155;SDS011;32908;52.344;16.858;2022-08-18T07:34:27;16.40;;;13.77;;
47155;SDS011;32908;52.344;16.858;2022-08-18T07:36:59;19.70;;;12.10;;
47155;SDS011;32908;52.344;16.858;2022-08-18T07:39:30;20.80;;;12.53;;
47155;SDS011;32908;52.344;16.858;2022-08-18T07:42:02;20.63;;;12.23;;
47155;SDS011;32908;52.344;16.858;2022-08-18T07:44:33;18.77;;;11.97;;
47155;SDS011;32908;52.344;16.858;2022-08-18T07:47:11;15.83;;;12.77;;
47155;SDS011;32908;52.344;16.858;2022-08-18T07:49:42;15.77;;;11.13;;
47155;SDS011;32908;52.344;16.858;2022-08-18T07:52:12;14.63;;;11.90;;
47155;SDS011;32908;52.344;16.858;2022-08-18T07:54:46;12.80;;;10.43;;
47155;SDS011;32908;52.344;16.858;2022-08-18T07:57:22;12.57;;;11.23;;
47155;SDS011;32908;52.344;16.858;2022-08-18T07:59:55;17.43;;;11.27;;
47155;SDS011;32908;52.344;16.858;2022-08-18T08:02:30;17.17;;;11.57;;
47155;SDS011;32908;52.344;16.858;2022-08-18T08:05:06;19.37;;;11.80;;
47155;SDS011;32908;52.344;16.858;2022-08-18T08:07:40;17.47;;;10.90;;
47155;SDS011;32908;52.344;16.858;2022-08-18T08:10:20;17.87;;;10.57;;
47155;SDS011;32908;52.344;16.858;2022-08-18T08:12:56;17.37;;;10.80;;
47155;SDS011;32908;52.344;16.858;2022-08-18T08:15:31;16.10;;;11.07;;
47155;SDS011;32908;52.344;16.858;2022-08-18T08:18:08;13.07;;;10.60;;
47155;SDS011;32908;52.344;16.858;2022-08-18T08:20:39;16.67;;;10.87;;
47155;SDS011;32908;52.344;16.858;2022-08-18T08:23:13;22.73;;;11.30;;
47155;SDS011;32908;52.344;16.858;2022-08-18T08:25:49;11.77;;;9.30;;
47155;SDS011;32908;52.344;16.858;2022-08-18T08:28:27;12.07;;;10.43;;
47155;SDS011;32908;52.344;16.858;2022-08-18T08:31:01;11.78;;;9.90;;
47155;SDS011;32908;52.344;16.858;2022-08-18T08:33:34;15.90;;;9.73;;
47155;SDS011;32908;52.344;16.858;2022-08-18T08:36:04;13.90;;;9.60;;
47155;SDS011;32908;52.344;16.858;2022-08-18T08:38:37;10.90;;;9.67;;
47155;SDS011;32908;52.344;16.858;2022-08-18T08:41:10;12.37;;;10.03;;
47155;SDS011;32908;52.344;16.858;2022-08-18T08:43:42;13.53;;;10.10;;
47155;SDS011;32908;52.344;16.858;2022-08-18T08:46:16;12.37;;;8.90;;
47155;SDS011;32908;52.344;16.858;2022-08-18T08:48:47;14.97;;;8.53;;
47155;SDS011;32908;52.344;16.858;2022-08-18T08:51:30;12.90;;;9.50;;
47155;SDS011;32908;52.344;16.858;2022-08-18T08:54:03;11.70;;;8.65;;
47155;SDS011;32908;52.344;16.858;2022-08-18T08:56:35;10.63;;;8.80;;
47155;SDS011;32908;52.344;16.858;2022-08-18T08:59:06;13.37;;;8.80;;
47155;SDS011;32908;52.344;16.858;2022-08-18T09:01:38;10.67;;;9.30;;
47155;SDS011;32908;52.344;16.858;2022-08-18T09:04:16;11.03;;;7.75;;
47155;SDS011;32908;52.344;16.858;2022-08-18T09:06:51;14.07;;;8.40;;
47155;SDS011;32908;52.344;16.858;2022-08-18T09:09:31;12.93;;;7.60;;
47155;SDS011;32908;52.344;16.858;2022-08-18T09:12:23;8.00;;;7.20;;
47155;SDS011;32908;52.344;16.858;2022-08-18T09:15:06;13.87;;;7.83;;
47155;SDS011;32908;52.344;16.858;2022-08-18T09:17:57;12.87;;;7.83;;
47155;SDS011;32908;52.344;16.858;2022-08-18T09:20:45;9.57;;;7.57;;
47155;SDS011;32908;52.344;16.858;2022-08-18T09:23:17;13.30;;;7.40;;
47155;SDS011;32908;52.344;16.858;2022-08-18T09:25:48;10.77;;;7.40;;
47155;SDS011;32908;52.344;16.858;2022-08-18T09:28:17;10.47;;;7.97;;
47155;SDS011;32908;52.344;16.858;2022-08-18T09:31:11;11.23;;;7.93;;
47155;SDS011;32908;52.344;16.858;2022-08-18T09:33:48;8.03;;;7.23;;
47155;SDS011;32908;52.344;16.858;2022-08-18T09:36:33;9.83;;;7.93;;
47155;SDS011;32908;52.344;16.858;2022-08-18T09:39:07;8.43;;;7.23;;
47155;SDS011;32908;52.344;16.858;2022-08-18T09:42:06;8.30;;;6.70;;
47155;SDS011;32908;52.344;16.858;2022-08-18T09:50:31;10.87;;;7.53;;
47155;SDS011;32908;52.344;16.858;2022-08-18T09:53:14;7.90;;;7.10;;
47155;SDS011;32908;52.344;16.858;2022-08-18T09:56:00;8.43;;;6.90;;
47155;SDS011;32908;52.344;16.858;2022-08-18T10:09:59;8.50;;;6.10;;
47155;SDS011;32908;52.344;16.858;2022-08-18T10:12:35;8.60;;;6.80;;
47155;SDS011;32908;52.344;16.858;2022-08-18T10:15:17;10.97;;;6.80;;
47155;SDS011;32908;52.344;16.858;2022-08-18T10:17:53;8.57;;;6.20;;
47155;SDS011;32908;52.344;16.858;2022-08-18T10:20:34;8.50;;;6.87;;
47155;SDS011;32908;52.344;16.858;2022-08-18T10:23:07;7.70;;;7.05;;
47155;SDS011;32908;52.344;16.858;2022-08-18T10:25:37;6.87;;;6.13;;
47155;SDS011;32908;52.344;16.858;2022-08-18T10:28:07;9.47;;;6.53;;
47155;SDS011;32908;52.344;16.858;2022-08-18T10:36:34;13.35;;;6.95;;
47155;SDS011;32908;52.344;16.858;2022-08-18T10:39:13;10.37;;;7.10;;
47155;SDS011;32908;52.344;16.858;2022-08-18T10:41:50;9.47;;;6.60;;
47155;SDS011;32908;52.344;16.858;2022-08-18T10:44:23;7.23;;;6.57;;
47155;SDS011;32908;52.344;16.858;2022-08-18T10:46:52;6.90;;;6.20;;
47155;SDS011;32908;52.344;16.858;2022-08-18T10:49:24;8.80;;;6.60;;
47155;SDS011;32908;52.344;16.858;2022-08-18T10:52:05;10.80;;;6.50;;
47155;SDS011;32908;52.344;16.858;2022-08-18T10:57:53;7.23;;;6.43;;
47155;SDS011;32908;52.344;16.858;2022-08-18T11:00:37;10.20;;;6.57;;
47155;SDS011;32908;52.344;16.858;2022-08-18T11:03:12;9.20;;;6.65;;
47155;SDS011;32908;52.344;16.858;2022-08-18T11:05:44;8.17;;;6.30;;
47155;SDS011;32908;52.344;16.858;2022-08-18T11:08:13;8.60;;;6.30;;
47155;SDS011;32908;52.344;16.858;2022-08-18T11:10:44;9.37;;;6.20;;
47155;SDS011;32908;52.344;16.858;2022-08-18T11:13:17;8.67;;;6.77;;
47155;SDS011;32908;52.344;16.858;2022-08-18T11:15:53;8.15;;;6.10;;
47155;SDS011;32908;52.344;16.858;2022-08-18T11:18:29;9.43;;;6.43;;
47155;SDS011;32908;52.344;16.858;2022-08-18T11:24:04;8.37;;;6.57;;
47155;SDS011;32908;52.344;16.858;2022-08-18T11:26:35;7.63;;;6.83;;
47155;SDS011;32908;52.344;16.858;2022-08-18T11:29:16;7.85;;;6.70;;
47155;SDS011;32908;52.344;16.858;2022-08-18T11:31:48;11.33;;;7.20;;
47155;SDS011;32908;52.344;16.858;2022-08-18T11:34:20;11.20;;;6.53;;
47155;SDS011;32908;52.344;16.858;2022-08-18T11:36:57;8.47;;;6.90;;
47155;SDS011;32908;52.344;16.858;2022-08-18T11:39:27;8.33;;;6.73;;
47155;SDS011;32908;52.344;16.858;2022-08-18T11:41:56;7.47;;;6.27;;
47155;SDS011;32908;52.344;16.858;2022-08-18T11:44:27;8.63;;;6.03;;
47155;SDS011;32908;52.344;16.858;2022-08-18T11:47:07;10.00;;;5.77;;
47155;SDS011;32908;52.344;16.858;2022-08-18T11:49:44;9.43;;;6.40;;
47155;SDS011;32908;52.344;16.858;2022-08-18T11:52:18;12.73;;;6.60;;
47155;SDS011;32908;52.344;16.858;2022-08-18T11:54:49;11.90;;;6.50;;
47155;SDS011;32908;52.344;16.858;2022-08-18T12:03:21;6.60;;;5.83;;
47155;SDS011;32908;52.344;16.858;2022-08-18T12:08:25;8.43;;;5.63;;
47155;SDS011;32908;52.344;16.858;2022-08-18T12:11:01;7.27;;;5.73;;
47155;SDS011;32908;52.344;16.858;2022-08-18T12:13:30;8.07;;;5.90;;
47155;SDS011;32908;52.344;16.858;2022-08-18T12:16:08;6.97;;;6.27;;
47155;SDS011;32908;52.344;16.858;2022-08-18T12:18:38;9.00;;;7.10;;
47155;SDS011;32908;52.344;16.858;2022-08-18T12:21:06;7.17;;;6.30;;
47155;SDS011;32908;52.344;16.858;2022-08-18T12:23:37;7.77;;;7.07;;
47155;SDS011;32908;52.344;16.858;2022-08-18T12:26:07;8.07;;;6.50;;
47155;SDS011;32908;52.344;16.858;2022-08-18T12:28:35;9.37;;;6.77;;
47155;SDS011;32908;52.344;16.858;2022-08-18T12:31:05;11.67;;;7.30;;
47155;SDS011;32908;52.344;16.858;2022-08-18T12:33:33;10.37;;;7.07;;
47155;SDS011;32908;52.344;16.858;2022-08-18T12:36:02;9.43;;;6.83;;
47155;SDS011;32908;52.344;16.858;2022-08-18T12:38:31;8.30;;;6.63;;
47155;SDS011;32908;52.344;16.858;2022-08-18T12:40:59;7.83;;;6.60;;
47155;SDS011;32908;52.344;16.858;2022-08-18T12:43:27;8.40;;;6.70;;
47155;SDS011;32908;52.344;16.858;2022-08-18T12:45:55;13.63;;;6.63;;
47155;SDS011;32908;52.344;16.858;2022-08-18T12:48:23;9.53;;;6.07;;
47155;SDS011;32908;52.344;16.858;2022-08-18T12:50:51;8.03;;;6.37;;
47155;SDS011;32908;52.344;16.858;2022-08-18T12:53:19;12.97;;;6.60;;
47155;SDS011;32908;52.344;16.858;2022-08-18T12:55:47;10.03;;;6.90;;
47155;SDS011;32908;52.344;16.858;2022-08-18T12:58:15;9.27;;;6.60;;
47155;SDS011;32908;52.344;16.858;2022-08-18T13:00:43;9.07;;;6.43;;
47155;SDS011;32908;52.344;16.858;2022-08-18T13:03:12;10.67;;;6.53;;
47155;SDS011;32908;52.344;16.858;2022-08-18T13:05:40;7.10;;;6.40;;
47155;SDS011;32908;52.344;16.858;2022-08-18T13:08:11;9.50;;;6.83;;
47155;SDS011;32908;52.344;16.858;2022-08-18T13:10:41;8.10;;;7.30;;
47155;SDS011;32908;52.344;16.858;2022-08-18T13:13:09;7.00;;;6.33;;
47155;SDS011;32908;52.344;16.858;2022-08-18T13:15:37;7.83;;;6.60;;
47155;SDS011;32908;52.344;16.858;2022-08-18T13:18:05;9.00;;;6.60;;
47155;SDS011;32908;52.344;16.858;2022-08-18T13:20:33;8.37;;;6.13;;
47155;SDS011;32908;52.344;16.858;2022-08-18T13:23:01;8.80;;;6.10;;
47155;SDS011;32908;52.344;16.858;2022-08-18T13:25:29;6.63;;;5.90;;
47155;SDS011;32908;52.344;16.858;2022-08-18T13:27:57;6.90;;;6.30;;
47155;SDS011;32908;52.344;16.858;2022-08-18T13:30:25;9.33;;;5.90;;
47155;SDS011;32908;52.344;16.858;2022-08-18T13:32:53;8.37;;;6.47;;
47155;SDS011;32908;52.344;16.858;2022-08-18T13:35:21;7.40;;;6.00;;
47155;SDS011;32908;52.344;16.858;2022-08-18T13:37:49;9.47;;;5.87;;
47155;SDS011;32908;52.344;16.858;2022-08-18T13:40:18;6.37;;;5.87;;
47155;SDS011;32908;52.344;16.858;2022-08-18T13:42:47;7.10;;;5.90;;
47155;SDS011;32908;52.344;16.858;2022-08-18T13:45:17;8.03;;;6.23;;
47155;SDS011;32908;52.344;16.858;2022-08-18T13:47:45;7.03;;;5.97;;
47155;SDS011;32908;52.344;16.858;2022-08-18T13:50:14;7.27;;;6.37;;
47155;SDS011;32908;52.344;16.858;2022-08-18T13:52:42;7.17;;;5.73;;
47155;SDS011;32908;52.344;16.858;2022-08-18T13:55:11;9.10;;;6.37;;
47155;SDS011;32908;52.344;16.858;2022-08-18T13:57:40;7.03;;;5.30;;
47155;SDS011;32908;52.344;16.858;2022-08-18T14:00:14;8.87;;;5.20;;
47155;SDS011;32908;52.344;16.858;2022-08-18T14:02:45;11.10;;;5.50;;
47155;SDS011;32908;52.344;16.858;2022-08-18T14:05:13;7.23;;;5.77;;
47155;SDS011;32908;52.344;16.858;2022-08-18T14:07:41;10.37;;;6.27;;
47155;SDS011;32908;52.344;16.858;2022-08-18T14:10:10;7.83;;;6.53;;
47155;SDS011;32908;52.344;16.858;2022-08-18T14:12:38;6.90;;;5.87;;
47155;SDS011;32908;52.344;16.858;2022-08-18T14:15:08;6.80;;;6.10;;
47155;SDS011;32908;52.344;16.858;2022-08-18T14:17:37;5.90;;;5.17;;
47155;SDS011;32908;52.344;16.858;2022-08-18T14:20:06;8.17;;;6.20;;
47155;SDS011;32908;52.344;16.858;2022-08-18T14:22:55;8.90;;;6.70;;
47155;SDS011;32908;52.344;16.858;2022-08-18T14:25:42;10.13;;;6.60;;
47155;SDS011;32908;52.344;16.858;2022-08-18T14:28:28;9.73;;;6.67;;
47155;SDS011;32908;52.344;16.858;2022-08-18T14:30:58;8.80;;;7.97;;
47155;SDS011;32908;52.344;16.858;2022-08-18T14:33:28;8.67;;;6.90;;
47155;SDS011;32908;52.344;16.858;2022-08-18T14:35:57;10.30;;;7.60;;
47155;SDS011;32908;52.344;16.858;2022-08-18T14:38:25;11.23;;;7.50;;
47155;SDS011;32908;52.344;16.858;2022-08-18T14:40:53;12.27;;;8.07;;
47155;SDS011;32908;52.344;16.858;2022-08-18T14:43:20;7.97;;;7.17;;
47155;SDS011;32908;52.344;16.858;2022-08-18T14:45:48;16.15;;;7.20;;
47155;SDS011;32908;52.344;16.858;2022-08-18T14:48:17;13.55;;;7.50;;
47155;SDS011;32908;52.344;16.858;2022-08-18T14:50:47;14.07;;;7.53;;
47155;SDS011;32908;52.344;16.858;2022-08-18T14:53:16;13.27;;;7.40;;
47155;SDS011;32908;52.344;16.858;2022-08-18T14:55:45;7.95;;;6.50;;
47155;SDS011;32908;52.344;16.858;2022-08-18T14:58:17;11.60;;;6.83;;
47155;SDS011;32908;52.344;16.858;2022-08-18T15:00:45;10.17;;;7.50;;
47155;SDS011;32908;52.344;16.858;2022-08-18T15:03:13;8.60;;;7.50;;
47155;SDS011;32908;52.344;16.858;2022-08-18T15:05:41;8.57;;;7.03;;
47155;SDS011;32908;52.344;16.858;2022-08-18T15:08:09;8.90;;;6.90;;
47155;SDS011;32908;52.344;16.858;2022-08-18T15:10:37;10.53;;;7.30;;
47155;SDS011;32908;52.344;16.858;2022-08-18T15:13:05;10.70;;;7.40;;
47155;SDS011;32908;52.344;16.858;2022-08-18T15:15:33;9.97;;;7.30;;
47155;SDS011;32908;52.344;16.858;2022-08-18T15:18:01;8.47;;;7.50;;
47155;SDS011;32908;52.344;16.858;2022-08-18T15:20:30;11.63;;;7.23;;
47155;SDS011;32908;52.344;16.858;2022-08-18T15:22:59;7.97;;;7.20;;
47155;SDS011;32908;52.344;16.858;2022-08-18T15:25:46;9.20;;;7.40;;